sensor_id;sensor_type;location;lat;lon;timestamp;pressure;altitude;pressure_sealevel;temperature;humidity
36062;BME280;22123;52.412;20.970;2023-09-18T00:00:25;100898.13;;;15.97;100.00
36062;BME280;22123;52.412;20.970;2023-09-18T00:02:51;100853.53;;;15.63;100.00
36062;BME280;22123;52.412;20.970;2023-09-18T00:05:17;100832.97;;;15.47;100.00
36062;BME280;22123;52.412;20.970;2023-09-18T00:07:43;100800.22;;;15.27;100.00
36062;BME280;22123;52.412;20.970;2023-09-18T00:10:09;100890.75;;;15.91;100.00
36062;BME280;22123;52.412;20.970;2023-09-18T00:12:35;100815.38;;;15.43;100.00
36062;BME280;22123;52.412;20.970;2023-09-18T00:15:01;100854.16;;;15.65;100.00
36062;BME280;22123;52.412;20.970;2023-09-18T00:17:27;100723.03;;;14.80;100.00
36062;BME280;22123;52.412;20.970;2023-09-18T00:19:53;100895.09;;;15.86;100.00
36062;BME280;22123;52.412;20.970;2023-09-18T00:22:18;100892.56;;;15.84;100.00
36062;BME280;22123;52.412;20.970;2023-09-18T00:24:44;100894.84;;;15.80;100.00
36062;BME280;22123;52.412;20.970;2023-09-18T00:27:10;100784.81;;;15.06;100.00
36062;BME280;22123;52.412;20.970;2023-09-18T00:29:36;100895.78;;;15.73;100.00
36062;BME280;22123;52.412;20.970;2023-09-18T00:32:02;100720.78;;;14.62;100.00
36062;BME280;22123;52.412;20.970;2023-09-18T00:34:29;100643.91;;;14.05;100.00
36062;BME280;22123;52.412;20.970;2023-09-18T00:36:55;100787.97;;;14.88;100.00
36062;BME280;22123;52.412;20.970;2023-09-18T00:39:20;100896.47;;;15.53;100.00
36062;BME280;22123;52.412;20.970;2023-09-18T00:41:46;100755.81;;;14.64;100.00
36062;BME280;22123;52.412;20.970;2023-09-18T00:44:12;100896.38;;;15.46;100.00
36062;BME280;22123;52.412;20.970;2023-09-18T00:46:38;100731.38;;;14.42;100.00
36062;BME280;22123;52.412;20.970;2023-09-18T00:49:03;100892.97;;;15.38;100.00
36062;BME280;22123;52.412;20.970;2023-09-18T00:51:29;100793.38;;;14.67;100.00
36062;BME280;22123;52.412;20.970;2023-09-18T00:53:55;100895.81;;;15.29;100.00
36062;BME280;22123;52.412;20.970;2023-09-18T00:56:21;100695.16;;;14.06;100.00
36062;BME280;22123;52.412;20.970;2023-09-18T00:58:47;100888.63;;;15.22;100.00
36062;BME280;22123;52.412;20.970;2023-09-18T01:01:15;100739.53;;;14.27;100.00
36062;BME280;22123;52.412;20.970;2023-09-18T01:03:43;100788.78;;;14.52;100.00
36062;BME280;22123;52.412;20.970;2023-09-18T01:06:09;100793.94;;;14.47;100.00
36062;BME280;22123;52.412;20.970;2023-09-18T01:08:35;100883.66;;;15.04;100.00
36062;BME280;22123;52.412;20.970;2023-09-18T01:11:27;100787.13;;;14.36;100.00
36062;BME280;22123;52.412;20.970;2023-09-18T01:14:20;100862.50;;;14.77;100.00
36062;BME280;22123;52.412;20.970;2023-09-18T01:16:59;100885.34;;;14.90;100.00
36062;BME280;22123;52.412;20.970;2023-09-18T01:19:38;100818.72;;;14.44;100.00
36062;BME280;22123;52.412;20.970;2023-09-18T01:22:06;100884.44;;;14.83;100.00
36062;BME280;22123;52.412;20.970;2023-09-18T01:24:33;100846.97;;;14.56;100.00
36062;BME280;22123;52.412;20.970;2023-09-18T01:26:59;100886.88;;;14.77;100.00
36062;BME280;22123;52.412;20.970;2023-09-18T01:29:25;100885.38;;;14.75;100.00
36062;BME280;22123;52.412;20.970;2023-09-18T01:31:51;100793.81;;;14.04;100.00
36062;BME280;22123;52.412;20.970;2023-09-18T01:34:16;100892.78;;;14.66;100.00
36062;BME280;22123;52.412;20.970;2023-09-18T01:36:45;100760.59;;;13.80;100.00
36062;BME280;22123;52.412;20.970;2023-09-18T01:39:12;100826.84;;;14.14;100.00
36062;BME280;22123;52.412;20.970;2023-09-18T01:41:38;100874.28;;;14.40;100.00
36062;BME280;22123;52.412;20.970;2023-09-18T01:44:05;100804.44;;;13.90;100.00
36062;BME280;22123;52.412;20.970;2023-09-18T01:46:32;100890.25;;;14.50;100.00
36062;BME280;22123;52.412;20.970;2023-09-18T01:48:58;100743.31;;;13.51;100.00
36062;BME280;22123;52.412;20.970;2023-09-18T01:51:37;100892.88;;;14.43;100.00
36062;BME280;22123;52.412;20.970;2023-09-18T01:54:03;100894.91;;;14.41;100.00
36062;BME280;22123;52.412;20.970;2023-09-18T01:56:29;100894.25;;;14.39;100.00
36062;BME280;22123;52.412;20.970;2023-09-18T01:58:54;100860.91;;;14.23;100.00
36062;BME280;22123;52.412;20.970;2023-09-18T02:01:20;100768.41;;;13.60;100.00
36062;BME280;22123;52.412;20.970;2023-09-18T02:03:46;100804.22;;;13.77;100.00
36062;BME280;22123;52.412;20.970;2023-09-18T02:06:12;100793.88;;;13.66;100.00
36062;BME280;22123;52.412;20.970;2023-09-18T02:08:38;100788.72;;;13.56;100.00
36062;BME280;22123;52.412;20.970;2023-09-18T02:11:04;100875.59;;;14.14;100.00
36062;BME280;22123;52.412;20.970;2023-09-18T02:13:30;100801.31;;;13.64;100.00
36062;BME280;22123;52.412;20.970;2023-09-18T02:15:56;100834.66;;;13.79;100.00
36062;BME280;22123;52.412;20.970;2023-09-18T02:18:22;100752.81;;;13.24;100.00
36062;BME280;22123;52.412;20.970;2023-09-18T02:20:48;100845.56;;;13.86;100.00
36062;BME280;22123;52.412;20.970;2023-09-18T02:23:14;100818.56;;;13.63;100.00
36062;BME280;22123;52.412;20.970;2023-09-18T02:25:40;100818.56;;;13.63;100.00
36062;BME280;22123;52.412;20.970;2023-09-18T02:28:09;100708.72;;;12.85;100.00
36062;BME280;22123;52.412;20.970;2023-09-18T02:30:35;100688.44;;;12.66;100.00
36062;BME280;22123;52.412;20.970;2023-09-18T02:33:01;100761.38;;;13.13;100.00
36062;BME280;22123;52.412;20.970;2023-09-18T02:35:27;100863.75;;;13.77;100.00
36062;BME280;22123;52.412;20.970;2023-09-18T02:37:53;100857.69;;;13.75;100.00
36062;BME280;22123;52.412;20.970;2023-09-18T02:40:19;100749.28;;;13.00;100.00
36062;BME280;22123;52.412;20.970;2023-09-18T02:42:44;100484.22;;;11.35;100.00
36062;BME280;22123;52.412;20.970;2023-09-18T02:45:10;100739.28;;;12.86;100.00
36062;BME280;22123;52.412;20.970;2023-09-18T02:47:36;100752.25;;;12.91;100.00
36062;BME280;22123;52.412;20.970;2023-09-18T02:50:02;100839.22;;;13.41;100.00
36062;BME280;22123;52.412;20.970;2023-09-18T02:52:28;100706.22;;;12.61;100.00
36062;BME280;22123;52.412;20.970;2023-09-18T02:54:54;100785.19;;;13.09;100.00
36062;BME280;22123;52.412;20.970;2023-09-18T02:57:20;100739.34;;;12.78;100.00
36062;BME280;22123;52.412;20.970;2023-09-18T02:59:46;100722.72;;;12.66;100.00
36062;BME280;22123;52.412;20.970;2023-09-18T03:02:12;100669.31;;;12.30;100.00
36062;BME280;22123;52.412;20.970;2023-09-18T03:04:37;100762.22;;;12.90;100.00
36062;BME280;22123;52.412;20.970;2023-09-18T03:07:03;100852.03;;;13.47;100.00
36062;BME280;22123;52.412;20.970;2023-09-18T03:09:29;100699.38;;;12.50;100.00
36062;BME280;22123;52.412;20.970;2023-09-18T03:11:55;100715.50;;;12.58;100.00
36062;BME280;22123;52.412;20.970;2023-09-18T03:14:21;100852.19;;;13.45;100.00
36062;BME280;22123;52.412;20.970;2023-09-18T03:16:48;100643.44;;;12.12;100.00
36062;BME280;22123;52.412;20.970;2023-09-18T03:19:14;100690.97;;;12.45;100.00
36062;BME280;22123;52.412;20.970;2023-09-18T03:21:40;100780.59;;;12.95;100.00
36062;BME280;22123;52.412;20.970;2023-09-18T03:24:06;100767.94;;;12.95;100.00
36062;BME280;22123;52.412;20.970;2023-09-18T03:26:32;100651.22;;;12.30;100.00
36062;BME280;22123;52.412;20.970;2023-09-18T03:28:58;100648.84;;;12.35;100.00
36062;BME280;22123;52.412;20.970;2023-09-18T03:31:24;100789.63;;;13.25;100.00
36062;BME280;22123;52.412;20.970;2023-09-18T03:33:50;100646.16;;;12.35;100.00
36062;BME280;22123;52.412;20.970;2023-09-18T03:36:16;100706.06;;;12.77;100.00
36062;BME280;22123;52.412;20.970;2023-09-18T03:38:41;100735.31;;;12.97;100.00
36062;BME280;22123;52.412;20.970;2023-09-18T03:41:07;100807.09;;;13.46;100.00
36062;BME280;22123;52.412;20.970;2023-09-18T03:43:33;100688.06;;;12.69;100.00
36062;BME280;22123;52.412;20.970;2023-09-18T03:46:06;100701.28;;;12.87;100.00
36062;BME280;22123;52.412;20.970;2023-09-18T03:48:32;100713.88;;;12.95;100.00
36062;BME280;22123;52.412;20.970;2023-09-18T03:50:58;100710.25;;;13.03;100.00
36062;BME280;22123;52.412;20.970;2023-09-18T03:53:27;100670.19;;;12.68;100.00
36062;BME280;22123;52.412;20.970;2023-09-18T03:55:52;100707.56;;;13.03;100.00
36062;BME280;22123;52.412;20.970;2023-09-18T03:58:18;100699.81;;;13.00;100.00
36062;BME280;22123;52.412;20.970;2023-09-18T04:00:44;100682.47;;;12.94;100.00
36062;BME280;22123;52.412;20.970;2023-09-18T04:03:10;100686.94;;;13.02;100.00
36062;BME280;22123;52.412;20.970;2023-09-18T04:05:36;100785.03;;;13.72;100.00
36062;BME280;22123;52.412;20.970;2023-09-18T04:08:02;100757.09;;;13.56;100.00
36062;BME280;22123;52.412;20.970;2023-09-18T04:10:28;100811.53;;;13.91;100.00
36062;BME280;22123;52.412;20.970;2023-09-18T04:12:54;100711.69;;;13.37;100.00
36062;BME280;22123;52.412;20.970;2023-09-18T04:15:22;100813.41;;;14.06;100.00
36062;BME280;22123;52.412;20.970;2023-09-18T04:17:48;100681.22;;;13.20;100.00
36062;BME280;22123;52.412;20.970;2023-09-18T04:20:14;100836.34;;;14.25;100.00
36062;BME280;22123;52.412;20.970;2023-09-18T04:22:45;100835.16;;;14.27;100.00
36062;BME280;22123;52.412;20.970;2023-09-18T04:25:11;100668.84;;;13.26;100.00
36062;BME280;22123;52.412;20.970;2023-09-18T04:27:37;100829.34;;;14.31;100.00
36062;BME280;22123;52.412;20.970;2023-09-18T04:30:03;100780.66;;;14.01;100.00
36062;BME280;22123;52.412;20.970;2023-09-18T04:32:30;100647.59;;;13.22;100.00
36062;BME280;22123;52.412;20.970;2023-09-18T04:34:56;100719.06;;;13.73;100.00
36062;BME280;22123;52.412;20.970;2023-09-18T04:37:22;100639.19;;;13.17;100.00
36062;BME280;22123;52.412;20.970;2023-09-18T04:39:48;100813.09;;;14.46;100.00
36062;BME280;22123;52.412;20.970;2023-09-18T04:42:14;100673.34;;;13.63;100.00
36062;BME280;22123;52.412;20.970;2023-09-18T04:44:40;100701.41;;;13.77;100.00
36062;BME280;22123;52.412;20.970;2023-09-18T04:47:06;100697.59;;;13.86;100.00
36062;BME280;22123;52.412;20.970;2023-09-18T04:49:31;100527.81;;;12.92;100.00
36062;BME280;22123;52.412;20.970;2023-09-18T04:51:57;100819.63;;;14.66;100.00
36062;BME280;22123;52.412;20.970;2023-09-18T04:54:23;100721.25;;;14.14;100.00
36062;BME280;22123;52.412;20.970;2023-09-18T04:56:49;100559.59;;;13.20;100.00
36062;BME280;22123;52.412;20.970;2023-09-18T04:59:15;100718.06;;;14.25;100.00
36062;BME280;22123;52.412;20.970;2023-09-18T05:01:41;100708.25;;;14.24;100.00
36062;BME280;22123;52.412;20.970;2023-09-18T05:04:07;100675.75;;;14.24;100.00
36062;BME280;22123;52.412;20.970;2023-09-18T05:06:33;100708.28;;;14.46;100.00
36062;BME280;22123;52.412;20.970;2023-09-18T05:08:58;100600.75;;;13.82;100.00
36062;BME280;22123;52.412;20.970;2023-09-18T05:11:24;100739.28;;;14.80;100.00
36062;BME280;22123;52.412;20.970;2023-09-18T05:13:50;100779.25;;;15.15;100.00
36062;BME280;22123;52.412;20.970;2023-09-18T05:16:16;100791.88;;;15.29;100.00
36062;BME280;22123;52.412;20.970;2023-09-18T05:18:42;100723.09;;;14.87;100.00
36062;BME280;22123;52.412;20.970;2023-09-18T05:21:08;100786.75;;;15.41;100.00
36062;BME280;22123;52.412;20.970;2023-09-18T05:23:34;100655.75;;;14.62;100.00
36062;BME280;22123;52.412;20.970;2023-09-18T05:26:00;100654.38;;;14.73;100.00
36062;BME280;22123;52.412;20.970;2023-09-18T05:28:26;100674.78;;;14.90;100.00
36062;BME280;22123;52.412;20.970;2023-09-18T05:30:52;100672.31;;;14.95;100.00
36062;BME280;22123;52.412;20.970;2023-09-18T05:33:18;100674.03;;;15.03;100.00
36062;BME280;22123;52.412;20.970;2023-09-18T05:35:44;100730.06;;;15.46;100.00
36062;BME280;22123;52.412;20.970;2023-09-18T05:38:10;100647.97;;;15.02;100.00
36062;BME280;22123;52.412;20.970;2023-09-18T05:40:37;100709.63;;;15.50;100.00
36062;BME280;22123;52.412;20.970;2023-09-18T05:43:04;100722.88;;;15.67;100.00
36062;BME280;22123;52.412;20.970;2023-09-18T05:45:30;100700.28;;;15.53;100.00
36062;BME280;22123;52.412;20.970;2023-09-18T05:47:57;100602.50;;;14.98;100.00
36062;BME280;22123;52.412;20.970;2023-09-18T05:50:22;100764.88;;;16.06;100.00
36062;BME280;22123;52.412;20.970;2023-09-18T05:52:49;100620.53;;;15.12;100.00
36062;BME280;22123;52.412;20.970;2023-09-18T05:55:15;100649.88;;;15.37;100.00
36062;BME280;22123;52.412;20.970;2023-09-18T05:57:41;100759.50;;;16.19;100.00
36062;BME280;22123;52.412;20.970;2023-09-18T06:00:07;100643.03;;;15.47;100.00
36062;BME280;22123;52.412;20.970;2023-09-18T06:02:33;100571.22;;;15.02;100.00
36062;BME280;22123;52.412;20.970;2023-09-18T06:04:59;100762.06;;;16.27;100.00
36062;BME280;22123;52.412;20.970;2023-09-18T06:07:26;100656.47;;;15.62;100.00
36062;BME280;22123;52.412;20.970;2023-09-18T06:09:53;100611.31;;;15.48;100.00
36062;BME280;22123;52.412;20.970;2023-09-18T06:12:19;100756.69;;;16.41;100.00
36062;BME280;22123;52.412;20.970;2023-09-18T06:14:52;100529.91;;;15.00;100.00
36062;BME280;22123;52.412;20.970;2023-09-18T06:17:21;100548.28;;;15.04;100.00
36062;BME280;22123;52.412;20.970;2023-09-18T06:19:52;100593.38;;;15.47;100.00
36062;BME280;22123;52.412;20.970;2023-09-18T06:22:18;100648.69;;;15.88;100.00
36062;BME280;22123;52.412;20.970;2023-09-18T06:24:44;100756.31;;;16.64;100.00
36062;BME280;22123;52.412;20.970;2023-09-18T06:27:13;100755.94;;;16.67;100.00
36062;BME280;22123;52.412;20.970;2023-09-18T06:29:38;100755.94;;;16.74;100.00
36062;BME280;22123;52.412;20.970;2023-09-18T06:32:05;100611.53;;;15.88;100.00
36062;BME280;22123;52.412;20.970;2023-09-18T06:34:30;100575.81;;;15.91;100.00
36062;BME280;22123;52.412;20.970;2023-09-18T06:36:56;100758.53;;;17.15;100.00
36062;BME280;22123;52.412;20.970;2023-09-18T06:39:22;100605.56;;;16.26;100.00
36062;BME280;22123;52.412;20.970;2023-09-18T06:41:48;100653.06;;;16.64;100.00
36062;BME280;22123;52.412;20.970;2023-09-18T06:44:14;100763.56;;;17.32;100.00
36062;BME280;22123;52.412;20.970;2023-09-18T06:46:41;100708.97;;;17.13;100.00
36062;BME280;22123;52.412;20.970;2023-09-18T06:49:07;100554.59;;;16.28;100.00
36062;BME280;22123;52.412;20.970;2023-09-18T06:51:33;100630.47;;;16.77;100.00
36062;BME280;22123;52.412;20.970;2023-09-18T06:53:59;100576.13;;;16.50;100.00
36062;BME280;22123;52.412;20.970;2023-09-18T06:56:24;100748.88;;;17.66;100.00
36062;BME280;22123;52.412;20.970;2023-09-18T06:58:53;100614.78;;;16.85;100.00
36062;BME280;22123;52.412;20.970;2023-09-18T07:01:19;100662.06;;;17.31;100.00
36062;BME280;22123;52.412;20.970;2023-09-18T07:03:46;100752.41;;;17.94;100.00
36062;BME280;22123;52.412;20.970;2023-09-18T07:06:13;100561.47;;;16.91;100.00
36062;BME280;22123;52.412;20.970;2023-09-18T07:08:39;100595.13;;;17.17;100.00
36062;BME280;22123;52.412;20.970;2023-09-18T07:11:04;100673.25;;;17.75;100.00
36062;BME280;22123;52.412;20.970;2023-09-18T07:13:30;100685.16;;;17.81;100.00
36062;BME280;22123;52.412;20.970;2023-09-18T07:15:58;100747.63;;;18.34;100.00
36062;BME280;22123;52.412;20.970;2023-09-18T07:18:23;100727.31;;;18.30;100.00
36062;BME280;22123;52.412;20.970;2023-09-18T07:20:49;100756.97;;;18.58;100.00
36062;BME280;22123;52.412;20.970;2023-09-18T07:23:15;100681.84;;;18.31;100.00
36062;BME280;22123;52.412;20.970;2023-09-18T07:25:41;100651.47;;;18.27;100.00
36062;BME280;22123;52.412;20.970;2023-09-18T07:28:07;100647.38;;;18.43;100.00
36062;BME280;22123;52.412;20.970;2023-09-18T07:30:33;100650.06;;;18.50;100.00
36062;BME280;22123;52.412;20.970;2023-09-18T07:33:00;100674.97;;;18.85;100.00
36062;BME280;22123;52.412;20.970;2023-09-18T07:35:26;100721.09;;;19.19;100.00
36062;BME280;22123;52.412;20.970;2023-09-18T07:38:08;100640.78;;;18.83;100.00
36062;BME280;22123;52.412;20.970;2023-09-18T07:40:39;100695.25;;;19.21;100.00
36062;BME280;22123;52.412;20.970;2023-09-18T07:43:05;100566.41;;;18.50;100.00
36062;BME280;22123;52.412;20.970;2023-09-18T07:45:31;100645.66;;;19.06;100.00
36062;BME280;22123;52.412;20.970;2023-09-18T07:47:57;100650.16;;;19.19;100.00
36062;BME280;22123;52.412;20.970;2023-09-18T07:50:23;100615.03;;;19.04;100.00
36062;BME280;22123;52.412;20.970;2023-09-18T07:52:48;100631.91;;;19.19;100.00
36062;BME280;22123;52.412;20.970;2023-09-18T07:55:14;100645.84;;;19.29;100.00
36062;BME280;22123;52.412;20.970;2023-09-18T07:57:40;100663.16;;;19.60;100.00
36062;BME280;22123;52.412;20.970;2023-09-18T08:00:07;100660.72;;;19.71;100.00
36062;BME280;22123;52.412;20.970;2023-09-18T08:02:33;100724.09;;;20.17;100.00
36062;BME280;22123;52.412;20.970;2023-09-18T08:04:59;100661.97;;;19.93;100.00
36062;BME280;22123;52.412;20.970;2023-09-18T08:07:25;100674.75;;;20.11;100.00
36062;BME280;22123;52.412;20.970;2023-09-18T08:09:51;100724.72;;;20.49;100.00
36062;BME280;22123;52.412;20.970;2023-09-18T08:12:17;100624.88;;;19.86;100.00
36062;BME280;22123;52.412;20.970;2023-09-18T08:14:44;100717.94;;;20.52;100.00
36062;BME280;22123;52.412;20.970;2023-09-18T08:17:10;100666.84;;;20.22;100.00
36062;BME280;22123;52.412;20.970;2023-09-18T08:19:36;100646.06;;;20.21;100.00
36062;BME280;22123;52.412;20.970;2023-09-18T08:22:02;100601.31;;;20.03;100.00
36062;BME280;22123;52.412;20.970;2023-09-18T08:24:27;100629.78;;;20.26;100.00
36062;BME280;22123;52.412;20.970;2023-09-18T08:26:53;100619.34;;;20.35;100.00
36062;BME280;22123;52.412;20.970;2023-09-18T08:29:19;100722.06;;;21.03;100.00
36062;BME280;22123;52.412;20.970;2023-09-18T08:31:45;100537.25;;;19.99;100.00
36062;BME280;22123;52.412;20.970;2023-09-18T08:34:11;100715.88;;;21.19;100.00
36062;BME280;22123;52.412;20.970;2023-09-18T08:36:37;100714.56;;;21.34;100.00
36062;BME280;22123;52.412;20.970;2023-09-18T08:39:03;100602.22;;;20.81;100.00
36062;BME280;22123;52.412;20.970;2023-09-18T08:41:31;100696.22;;;21.46;100.00
36062;BME280;22123;52.412;20.970;2023-09-18T08:44:01;100659.34;;;21.37;100.00
36062;BME280;22123;52.412;20.970;2023-09-18T08:46:38;100707.31;;;21.87;100.00
36062;BME280;22123;52.412;20.970;2023-09-18T08:49:05;100627.91;;;21.40;100.00
36062;BME280;22123;52.412;20.970;2023-09-18T08:51:36;100467.09;;;20.47;100.00
36062;BME280;22123;52.412;20.970;2023-09-18T08:54:11;100499.34;;;20.80;100.00
36062;BME280;22123;52.412;20.970;2023-09-18T08:59:45;100508.31;;;21.16;100.00
36062;BME280;22123;52.412;20.970;2023-09-18T09:02:11;100594.25;;;21.80;100.00
36062;BME280;22123;52.412;20.970;2023-09-18T09:04:38;100527.78;;;21.44;100.00
36062;BME280;22123;52.412;20.970;2023-09-18T09:07:04;100600.38;;;21.99;100.00
36062;BME280;22123;52.412;20.970;2023-09-18T09:09:30;100592.09;;;22.11;100.00
36062;BME280;22123;52.412;20.970;2023-09-18T09:12:46;100685.41;;;22.90;100.00
36062;BME280;22123;52.412;20.970;2023-09-18T09:15:04;100600.25;;;22.51;100.00
36062;BME280;22123;52.412;20.970;2023-09-18T09:17:31;100604.06;;;22.84;100.00
36062;BME280;22123;52.412;20.970;2023-09-18T09:20:16;100687.50;;;23.56;100.00
36062;BME280;22123;52.412;20.970;2023-09-18T09:22:42;100610.44;;;23.24;100.00
36062;BME280;22123;52.412;20.970;2023-09-18T09:27:46;100595.81;;;23.40;100.00
36062;BME280;22123;52.412;20.970;2023-09-18T09:30:19;100315.47;;;21.70;100.00
36062;BME280;22123;52.412;20.970;2023-09-18T09:32:48;100505.28;;;23.06;100.00
36062;BME280;22123;52.412;20.970;2023-09-18T09:35:26;100509.09;;;23.22;100.00
36062;BME280;22123;52.412;20.970;2023-09-18T09:37:52;100611.03;;;23.92;100.00
36062;BME280;22123;52.412;20.970;2023-09-18T09:40:21;100670.66;;;24.36;100.00
36062;BME280;22123;52.412;20.970;2023-09-18T09:42:47;100649.41;;;24.31;100.00
36062;BME280;22123;52.412;20.970;2023-09-18T09:45:15;100659.16;;;24.44;100.00
36062;BME280;22123;52.412;20.970;2023-09-18T09:47:41;100657.28;;;24.50;100.00
36062;BME280;22123;52.412;20.970;2023-09-18T09:50:11;100577.66;;;24.06;100.00
36062;BME280;22123;52.412;20.970;2023-09-18T09:52:47;100654.81;;;24.76;100.00
36062;BME280;22123;52.412;20.970;2023-09-18T09:55:25;100593.13;;;24.44;100.00
36062;BME280;22123;52.412;20.970;2023-09-18T09:58:00;100535.03;;;24.08;100.00
36062;BME280;22123;52.412;20.970;2023-09-18T10:03:04;100559.13;;;24.23;100.00
36062;BME280;22123;52.412;20.970;2023-09-18T10:05:34;100647.19;;;24.88;100.00
36062;BME280;22123;52.412;20.970;2023-09-18T10:08:10;100441.25;;;23.72;100.00
36062;BME280;22123;52.412;20.970;2023-09-18T10:10:50;100563.47;;;24.84;100.00
36062;BME280;22123;52.412;20.970;2023-09-18T10:13:41;100596.88;;;25.46;100.00
36062;BME280;22123;52.412;20.970;2023-09-18T10:16:09;100570.94;;;25.37;100.00
36062;BME280;22123;52.412;20.970;2023-09-18T10:18:56;100542.66;;;25.04;100.00
36062;BME280;22123;52.412;20.970;2023-09-18T10:21:35;100452.59;;;24.56;100.00
36062;BME280;22123;52.412;20.970;2023-09-18T10:24:28;100441.72;;;24.72;100.00
36062;BME280;22123;52.412;20.970;2023-09-18T10:27:27;100429.63;;;24.73;100.00
36062;BME280;22123;52.412;20.970;2023-09-18T10:29:53;100406.88;;;24.93;100.00
36062;BME280;22123;52.412;20.970;2023-09-18T10:32:53;100611.78;;;26.65;100.00
36062;BME280;22123;52.412;20.970;2023-09-18T10:35:19;100592.63;;;27.46;100.00
36062;BME280;22123;52.412;20.970;2023-09-18T10:37:46;100542.72;;;27.76;100.00
36062;BME280;22123;52.412;20.970;2023-09-18T10:40:13;100600.69;;;28.76;100.00
36062;BME280;22123;52.412;20.970;2023-09-18T10:42:40;100514.28;;;28.74;100.00
36062;BME280;22123;52.412;20.970;2023-09-18T10:45:08;100488.16;;;29.05;100.00
36062;BME280;22123;52.412;20.970;2023-09-18T10:47:38;100503.16;;;29.47;100.00
36062;BME280;22123;52.412;20.970;2023-09-18T10:50:06;100547.97;;;29.97;100.00
36062;BME280;22123;52.412;20.970;2023-09-18T10:52:32;100585.56;;;29.65;100.00
36062;BME280;22123;52.412;20.970;2023-09-18T10:54:58;100574.88;;;29.05;100.00
36062;BME280;22123;52.412;20.970;2023-09-18T10:57:24;100535.25;;;28.51;100.00
36062;BME280;22123;52.412;20.970;2023-09-18T10:59:54;100455.22;;;27.51;100.00
36062;BME280;22123;52.412;20.970;2023-09-18T11:08:34;100516.59;;;28.33;100.00
36062;BME280;22123;52.412;20.970;2023-09-18T11:11:03;100565.63;;;28.91;100.00
36062;BME280;22123;52.412;20.970;2023-09-18T11:13:35;100560.47;;;29.08;100.00
36062;BME280;22123;52.412;20.970;2023-09-18T11:18:51;100527.03;;;28.75;100.00
36062;BME280;22123;52.412;20.970;2023-09-18T11:21:17;100526.56;;;28.63;100.00
36062;BME280;22123;52.412;20.970;2023-09-18T11:23:43;100487.97;;;28.13;100.00
36062;BME280;22123;52.412;20.970;2023-09-18T11:26:10;100459.19;;;27.74;100.00
36062;BME280;22123;52.412;20.970;2023-09-18T11:28:36;100549.88;;;28.22;100.00
36062;BME280;22123;52.412;20.970;2023-09-18T11:31:03;100426.53;;;27.37;100.00
36062;BME280;22123;52.412;20.970;2023-09-18T11:33:41;100500.38;;;27.76;100.00
36062;BME280;22123;52.412;20.970;2023-09-18T11:38:58;100546.94;;;27.64;100.00
36062;BME280;22123;52.412;20.970;2023-09-18T11:41:28;100552.28;;;27.39;100.00
36062;BME280;22123;52.412;20.970;2023-09-18T11:46:45;100475.44;;;26.50;100.00
36062;BME280;22123;52.412;20.970;2023-09-18T11:49:11;100549.66;;;26.88;100.00
36062;BME280;22123;52.412;20.970;2023-09-18T11:51:38;100492.84;;;26.35;100.00
36062;BME280;22123;52.412;20.970;2023-09-18T11:54:27;100232.00;;;24.59;100.00
36062;BME280;22123;52.412;20.970;2023-09-18T11:57:08;100309.09;;;24.85;100.00
36062;BME280;22123;52.412;20.970;2023-09-18T11:59:53;100286.34;;;24.42;100.00
36062;BME280;22123;52.412;20.970;2023-09-18T12:03:17;100264.97;;;23.96;100.00
36062;BME280;22123;52.412;20.970;2023-09-18T12:05:44;100553.97;;;25.65;100.00
36062;BME280;22123;52.412;20.970;2023-09-18T12:08:16;100170.94;;;23.46;100.00
36062;BME280;22123;52.412;20.970;2023-09-18T12:10:50;100276.69;;;24.29;100.00
36062;BME280;22123;52.412;20.970;2023-09-18T12:13:16;100533.94;;;26.01;100.00
36062;BME280;22123;52.412;20.970;2023-09-18T12:15:43;100538.09;;;26.09;100.00
36062;BME280;22123;52.412;20.970;2023-09-18T12:18:14;100479.00;;;25.68;100.00
36062;BME280;22123;52.412;20.970;2023-09-18T12:20:50;100433.72;;;25.39;100.00
36062;BME280;22123;52.412;20.970;2023-09-18T12:23:17;100441.91;;;25.13;100.00
36062;BME280;22123;52.412;20.970;2023-09-18T12:25:45;100354.00;;;24.33;100.00
36062;BME280;22123;52.412;20.970;2023-09-18T12:28:14;100441.03;;;24.97;100.00
36062;BME280;22123;52.412;20.970;2023-09-18T12:30:43;100472.41;;;24.96;100.00
36062;BME280;22123;52.412;20.970;2023-09-18T12:33:10;100489.25;;;25.10;100.00
36062;BME280;22123;52.412;20.970;2023-09-18T12:35:36;100416.00;;;24.56;100.00
36062;BME280;22123;52.412;20.970;2023-09-18T12:38:02;100457.19;;;24.83;100.00
36062;BME280;22123;52.412;20.970;2023-09-18T12:40:38;100384.28;;;24.43;100.00
36062;BME280;22123;52.412;20.970;2023-09-18T12:43:04;100496.72;;;25.14;100.00
36062;BME280;22123;52.412;20.970;2023-09-18T12:45:31;100409.47;;;24.62;100.00
36062;BME280;22123;52.412;20.970;2023-09-18T12:47:59;100449.78;;;24.89;100.00
36062;BME280;22123;52.412;20.970;2023-09-18T12:50:25;100499.59;;;25.35;100.00
36062;BME280;22123;52.412;20.970;2023-09-18T12:53:09;100241.50;;;23.83;100.00
36062;BME280;22123;52.412;20.970;2023-09-18T12:55:36;100400.44;;;24.72;100.00
36062;BME280;22123;52.412;20.970;2023-09-18T12:58:22;100331.06;;;24.17;100.00